sensor_id;sensor_type;location;lat;lon;timestamp;P1;durP1;ratioP1;P2;durP2;ratioP2
24799;SDS011;12897;50.812;4.430;2023-04-24T00:02:11;34.30;;;14.85;;
24799;SDS011;12897;50.812;4.430;2023-04-24T00:04:39;32.03;;;15.10;;
24799;SDS011;12897;50.812;4.430;2023-04-24T00:07:09;39.25;;;14.78;;
24799;SDS011;12897;50.812;4.430;2023-04-24T00:09:38;26.42;;;13.88;;
24799;SDS011;12897;50.812;4.430;2023-04-24T00:12:06;34.50;;;15.25;;
24799;SDS011;12897;50.812;4.430;2023-04-24T00:14:34;30.30;;;14.15;;
24799;SDS011;12897;50.812;4.430;2023-04-24T00:17:01;32.63;;;14.68;;
24799;SDS011;12897;50.812;4.430;2023-04-24T00:19:29;31.20;;;14.87;;
24799;SDS011;12897;50.812;4.430;2023-04-24T00:21:57;32.63;;;14.33;;
24799;SDS011;12897;50.812;4.430;2023-04-24T00:24:25;34.58;;;14.47;;
24799;SDS011;12897;50.812;4.430;2023-04-24T00:26:53;36.03;;;14.20;;
24799;SDS011;12897;50.812;4.430;2023-04-24T00:29:20;28.15;;;14.45;;
24799;SDS011;12897;50.812;4.430;2023-04-24T00:31:48;35.23;;;15.80;;
24799;SDS011;12897;50.812;4.430;2023-04-24T00:34:15;38.28;;;14.50;;
24799;SDS011;12897;50.812;4.430;2023-04-24T00:36:44;27.67;;;14.38;;
24799;SDS011;12897;50.812;4.430;2023-04-24T00:39:11;35.73;;;15.55;;
24799;SDS011;12897;50.812;4.430;2023-04-24T00:41:39;25.62;;;14.35;;
24799;SDS011;12897;50.812;4.430;2023-04-24T00:44:06;30.30;;;14.68;;
24799;SDS011;12897;50.812;4.430;2023-04-24T00:46:34;29.65;;;15.43;;
24799;SDS011;12897;50.812;4.430;2023-04-24T00:49:03;29.95;;;14.50;;
24799;SDS011;12897;50.812;4.430;2023-04-24T00:51:32;24.77;;;14.28;;
24799;SDS011;12897;50.812;4.430;2023-04-24T00:54:00;34.55;;;15.38;;
24799;SDS011;12897;50.812;4.430;2023-04-24T00:56:28;39.88;;;15.38;;
24799;SDS011;12897;50.812;4.430;2023-04-24T00:58:57;28.38;;;14.90;;
24799;SDS011;12897;50.812;4.430;2023-04-24T01:04:13;34.45;;;15.05;;
24799;SDS011;12897;50.812;4.430;2023-04-24T01:06:43;34.67;;;14.35;;
24799;SDS011;12897;50.812;4.430;2023-04-24T01:09:12;35.13;;;14.73;;
24799;SDS011;12897;50.812;4.430;2023-04-24T01:11:41;39.65;;;16.30;;
24799;SDS011;12897;50.812;4.430;2023-04-24T01:14:09;26.82;;;13.98;;
24799;SDS011;12897;50.812;4.430;2023-04-24T01:16:36;28.70;;;13.53;;
24799;SDS011;12897;50.812;4.430;2023-04-24T01:19:10;32.63;;;14.68;;
24799;SDS011;12897;50.812;4.430;2023-04-24T01:21:34;27.82;;;14.53;;
24799;SDS011;12897;50.812;4.430;2023-04-24T01:24:04;30.32;;;15.85;;
24799;SDS011;12897;50.812;4.430;2023-04-24T01:26:33;27.42;;;14.80;;
24799;SDS011;12897;50.812;4.430;2023-04-24T01:29:01;25.25;;;13.93;;
24799;SDS011;12897;50.812;4.430;2023-04-24T01:31:29;27.17;;;14.93;;
24799;SDS011;12897;50.812;4.430;2023-04-24T01:33:58;29.50;;;14.90;;
24799;SDS011;12897;50.812;4.430;2023-04-24T01:36:26;27.50;;;13.30;;
24799;SDS011;12897;50.812;4.430;2023-04-24T01:38:55;28.00;;;13.53;;
24799;SDS011;12897;50.812;4.430;2023-04-24T01:41:23;25.97;;;13.65;;
24799;SDS011;12897;50.812;4.430;2023-04-24T01:43:51;22.15;;;13.90;;
24799;SDS011;12897;50.812;4.430;2023-04-24T01:46:20;23.92;;;13.45;;
24799;SDS011;12897;50.812;4.430;2023-04-24T01:48:48;24.12;;;13.98;;
24799;SDS011;12897;50.812;4.430;2023-04-24T01:51:16;24.90;;;13.05;;
24799;SDS011;12897;50.812;4.430;2023-04-24T01:53:44;30.95;;;15.13;;
24799;SDS011;12897;50.812;4.430;2023-04-24T01:56:11;25.68;;;14.13;;
24799;SDS011;12897;50.812;4.430;2023-04-24T01:58:40;24.37;;;15.10;;
24799;SDS011;12897;50.812;4.430;2023-04-24T02:01:08;25.17;;;16.10;;
24799;SDS011;12897;50.812;4.430;2023-04-24T02:03:37;30.37;;;15.90;;
24799;SDS011;12897;50.812;4.430;2023-04-24T02:06:05;28.98;;;16.15;;
24799;SDS011;12897;50.812;4.430;2023-04-24T02:08:34;26.75;;;17.32;;
24799;SDS011;12897;50.812;4.430;2023-04-24T02:11:02;32.13;;;17.45;;
24799;SDS011;12897;50.812;4.430;2023-04-24T02:13:30;28.42;;;17.48;;
24799;SDS011;12897;50.812;4.430;2023-04-24T02:15:58;33.98;;;17.37;;
24799;SDS011;12897;50.812;4.430;2023-04-24T02:18:26;32.15;;;18.27;;
24799;SDS011;12897;50.812;4.430;2023-04-24T02:20:54;35.48;;;18.12;;
24799;SDS011;12897;50.812;4.430;2023-04-24T02:23:22;30.95;;;18.23;;
24799;SDS011;12897;50.812;4.430;2023-04-24T02:25:49;31.77;;;17.85;;
24799;SDS011;12897;50.812;4.430;2023-04-24T02:28:19;31.52;;;17.65;;
24799;SDS011;12897;50.812;4.430;2023-04-24T02:30:46;35.50;;;17.85;;
24799;SDS011;12897;50.812;4.430;2023-04-24T02:33:14;33.88;;;17.73;;
24799;SDS011;12897;50.812;4.430;2023-04-24T02:35:41;33.78;;;17.65;;
24799;SDS011;12897;50.812;4.430;2023-04-24T02:38:09;33.63;;;17.40;;
24799;SDS011;12897;50.812;4.430;2023-04-24T02:43:23;32.83;;;16.85;;
24799;SDS011;12897;50.812;4.430;2023-04-24T02:45:51;28.50;;;15.93;;
24799;SDS011;12897;50.812;4.430;2023-04-24T02:48:19;30.52;;;16.27;;
24799;SDS011;12897;50.812;4.430;2023-04-24T02:50:46;30.40;;;15.10;;
24799;SDS011;12897;50.812;4.430;2023-04-24T02:53:14;28.52;;;15.35;;
24799;SDS011;12897;50.812;4.430;2023-04-24T02:55:41;32.00;;;14.83;;
24799;SDS011;12897;50.812;4.430;2023-04-24T02:58:09;25.68;;;14.30;;
24799;SDS011;12897;50.812;4.430;2023-04-24T03:00:38;27.27;;;14.28;;
24799;SDS011;12897;50.812;4.430;2023-04-24T03:03:06;24.18;;;14.20;;
24799;SDS011;12897;50.812;4.430;2023-04-24T03:05:34;24.15;;;13.43;;
24799;SDS011;12897;50.812;4.430;2023-04-24T03:08:01;22.45;;;13.15;;
24799;SDS011;12897;50.812;4.430;2023-04-24T03:10:29;20.02;;;12.58;;
24799;SDS011;12897;50.812;4.430;2023-04-24T03:12:57;18.35;;;11.15;;
24799;SDS011;12897;50.812;4.430;2023-04-24T03:15:26;21.65;;;11.48;;
24799;SDS011;12897;50.812;4.430;2023-04-24T03:17:53;20.20;;;11.88;;
24799;SDS011;12897;50.812;4.430;2023-04-24T03:20:21;21.95;;;11.53;;
24799;SDS011;12897;50.812;4.430;2023-04-24T03:22:49;20.57;;;10.75;;
24799;SDS011;12897;50.812;4.430;2023-04-24T03:25:16;23.18;;;12.30;;
24799;SDS011;12897;50.812;4.430;2023-04-24T03:27:44;19.62;;;11.10;;
24799;SDS011;12897;50.812;4.430;2023-04-24T03:30:11;18.55;;;11.25;;
24799;SDS011;12897;50.812;4.430;2023-04-24T03:32:39;22.93;;;11.75;;
24799;SDS011;12897;50.812;4.430;2023-04-24T03:35:07;22.67;;;12.35;;
24799;SDS011;12897;50.812;4.430;2023-04-24T03:37:35;20.02;;;11.75;;
24799;SDS011;12897;50.812;4.430;2023-04-24T03:40:02;20.77;;;12.53;;
24799;SDS011;12897;50.812;4.430;2023-04-24T03:42:31;20.65;;;12.20;;
24799;SDS011;12897;50.812;4.430;2023-04-24T03:44:59;21.20;;;12.73;;
24799;SDS011;12897;50.812;4.430;2023-04-24T03:47:26;24.60;;;12.93;;
24799;SDS011;12897;50.812;4.430;2023-04-24T03:49:54;20.17;;;12.78;;
24799;SDS011;12897;50.812;4.430;2023-04-24T03:52:22;23.77;;;12.63;;
24799;SDS011;12897;50.812;4.430;2023-04-24T03:54:50;27.10;;;12.82;;
24799;SDS011;12897;50.812;4.430;2023-04-24T03:57:18;21.52;;;11.48;;
24799;SDS011;12897;50.812;4.430;2023-04-24T03:59:45;17.37;;;11.50;;
24799;SDS011;12897;50.812;4.430;2023-04-24T04:02:13;19.50;;;10.68;;
24799;SDS011;12897;50.812;4.430;2023-04-24T04:04:40;18.75;;;11.10;;
24799;SDS011;12897;50.812;4.430;2023-04-24T04:07:08;22.37;;;11.28;;
24799;SDS011;12897;50.812;4.430;2023-04-24T04:09:37;21.68;;;9.70;;
24799;SDS011;12897;50.812;4.430;2023-04-24T04:12:04;17.85;;;9.85;;
24799;SDS011;12897;50.812;4.430;2023-04-24T04:14:32;16.23;;;9.60;;
24799;SDS011;12897;50.812;4.430;2023-04-24T04:16:59;12.07;;;7.97;;
24799;SDS011;12897;50.812;4.430;2023-04-24T04:19:27;16.77;;;8.75;;
24799;SDS011;12897;50.812;4.430;2023-04-24T04:21:55;13.70;;;8.43;;
24799;SDS011;12897;50.812;4.430;2023-04-24T04:24:22;15.25;;;8.55;;
24799;SDS011;12897;50.812;4.430;2023-04-24T04:26:58;15.65;;;8.20;;
24799;SDS011;12897;50.812;4.430;2023-04-24T04:29:26;18.25;;;10.08;;
24799;SDS011;12897;50.812;4.430;2023-04-24T04:31:53;15.55;;;9.13;;
24799;SDS011;12897;50.812;4.430;2023-04-24T04:34:21;12.88;;;7.92;;
24799;SDS011;12897;50.812;4.430;2023-04-24T04:36:48;14.98;;;8.13;;
24799;SDS011;12897;50.812;4.430;2023-04-24T04:39:16;19.12;;;8.70;;
24799;SDS011;12897;50.812;4.430;2023-04-24T04:41:44;16.23;;;8.55;;
24799;SDS011;12897;50.812;4.430;2023-04-24T04:44:13;14.07;;;8.37;;
24799;SDS011;12897;50.812;4.430;2023-04-24T04:46:41;17.32;;;8.90;;
24799;SDS011;12897;50.812;4.430;2023-04-24T04:49:09;16.93;;;9.18;;
24799;SDS011;12897;50.812;4.430;2023-04-24T04:51:37;14.13;;;8.03;;
24799;SDS011;12897;50.812;4.430;2023-04-24T04:54:05;14.05;;;8.15;;
24799;SDS011;12897;50.812;4.430;2023-04-24T04:56:33;14.33;;;9.68;;
24799;SDS011;12897;50.812;4.430;2023-04-24T04:59:01;21.15;;;9.93;;
24799;SDS011;12897;50.812;4.430;2023-04-24T05:01:28;29.10;;;12.73;;
24799;SDS011;12897;50.812;4.430;2023-04-24T05:03:56;21.87;;;12.50;;
24799;SDS011;12897;50.812;4.430;2023-04-24T05:06:24;19.10;;;11.83;;
24799;SDS011;12897;50.812;4.430;2023-04-24T05:08:51;24.20;;;13.10;;
24799;SDS011;12897;50.812;4.430;2023-04-24T05:11:21;33.50;;;13.60;;
24799;SDS011;12897;50.812;4.430;2023-04-24T05:13:48;26.20;;;13.15;;
24799;SDS011;12897;50.812;4.430;2023-04-24T05:16:18;28.40;;;13.22;;
24799;SDS011;12897;50.812;4.430;2023-04-24T05:18:45;28.15;;;14.30;;
24799;SDS011;12897;50.812;4.430;2023-04-24T05:21:13;33.28;;;14.68;;
24799;SDS011;12897;50.812;4.430;2023-04-24T05:23:41;30.25;;;15.30;;
24799;SDS011;12897;50.812;4.430;2023-04-24T05:26:08;30.90;;;15.15;;
24799;SDS011;12897;50.812;4.430;2023-04-24T05:28:36;28.25;;;14.78;;
24799;SDS011;12897;50.812;4.430;2023-04-24T05:31:03;27.10;;;14.73;;
24799;SDS011;12897;50.812;4.430;2023-04-24T05:33:32;25.80;;;13.43;;
24799;SDS011;12897;50.812;4.430;2023-04-24T05:35:59;34.75;;;15.08;;
24799;SDS011;12897;50.812;4.430;2023-04-24T05:38:27;31.17;;;15.13;;
24799;SDS011;12897;50.812;4.430;2023-04-24T05:40:55;26.12;;;14.60;;
24799;SDS011;12897;50.812;4.430;2023-04-24T05:43:22;32.63;;;15.95;;
24799;SDS011;12897;50.812;4.430;2023-04-24T05:45:50;29.23;;;15.70;;
24799;SDS011;12897;50.812;4.430;2023-04-24T05:50:52;22.45;;;14.93;;
24799;SDS011;12897;50.812;4.430;2023-04-24T05:53:19;27.73;;;15.45;;
24799;SDS011;12897;50.812;4.430;2023-04-24T05:55:47;29.07;;;16.17;;
24799;SDS011;12897;50.812;4.430;2023-04-24T05:58:15;32.25;;;16.00;;
24799;SDS011;12897;50.812;4.430;2023-04-24T06:00:44;29.77;;;15.25;;
24799;SDS011;12897;50.812;4.430;2023-04-24T06:03:12;29.00;;;16.37;;
24799;SDS011;12897;50.812;4.430;2023-04-24T06:05:40;28.62;;;15.53;;
24799;SDS011;12897;50.812;4.430;2023-04-24T06:08:07;36.83;;;16.07;;
24799;SDS011;12897;50.812;4.430;2023-04-24T06:10:36;31.68;;;16.73;;
24799;SDS011;12897;50.812;4.430;2023-04-24T06:13:03;38.05;;;16.30;;
24799;SDS011;12897;50.812;4.430;2023-04-24T06:15:31;42.03;;;18.60;;
24799;SDS011;12897;50.812;4.430;2023-04-24T06:17:58;29.27;;;15.13;;
24799;SDS011;12897;50.812;4.430;2023-04-24T06:20:26;33.48;;;16.65;;
24799;SDS011;12897;50.812;4.430;2023-04-24T06:22:54;34.43;;;17.23;;
24799;SDS011;12897;50.812;4.430;2023-04-24T06:25:21;32.05;;;16.42;;
24799;SDS011;12897;50.812;4.430;2023-04-24T06:27:50;27.95;;;15.48;;
24799;SDS011;12897;50.812;4.430;2023-04-24T06:30:18;36.68;;;18.05;;
24799;SDS011;12897;50.812;4.430;2023-04-24T06:32:45;31.25;;;17.40;;
24799;SDS011;12897;50.812;4.430;2023-04-24T06:35:13;37.38;;;17.30;;
24799;SDS011;12897;50.812;4.430;2023-04-24T06:37:41;38.13;;;17.30;;
24799;SDS011;12897;50.812;4.430;2023-04-24T06:40:09;35.28;;;18.87;;
24799;SDS011;12897;50.812;4.430;2023-04-24T06:42:37;35.52;;;18.30;;
24799;SDS011;12897;50.812;4.430;2023-04-24T06:45:05;45.75;;;18.37;;
24799;SDS011;12897;50.812;4.430;2023-04-24T06:47:33;44.13;;;20.17;;
24799;SDS011;12897;50.812;4.430;2023-04-24T06:50:00;35.40;;;18.92;;
24799;SDS011;12897;50.812;4.430;2023-04-24T06:52:28;43.80;;;19.07;;
24799;SDS011;12897;50.812;4.430;2023-04-24T06:55:01;51.50;;;18.80;;
24799;SDS011;12897;50.812;4.430;2023-04-24T06:57:29;46.23;;;20.00;;
24799;SDS011;12897;50.812;4.430;2023-04-24T06:59:57;36.98;;;18.62;;
24799;SDS011;12897;50.812;4.430;2023-04-24T07:02:24;39.75;;;19.20;;
24799;SDS011;12897;50.812;4.430;2023-04-24T07:04:53;37.93;;;18.85;;
24799;SDS011;12897;50.812;4.430;2023-04-24T07:07:22;50.23;;;20.92;;
24799;SDS011;12897;50.812;4.430;2023-04-24T07:09:50;36.30;;;18.90;;
24799;SDS011;12897;50.812;4.430;2023-04-24T07:12:19;41.73;;;18.65;;
24799;SDS011;12897;50.812;4.430;2023-04-24T07:14:47;41.77;;;19.32;;
24799;SDS011;12897;50.812;4.430;2023-04-24T07:17:16;48.47;;;20.47;;
24799;SDS011;12897;50.812;4.430;2023-04-24T07:19:44;43.25;;;19.17;;
24799;SDS011;12897;50.812;4.430;2023-04-24T07:22:11;39.15;;;17.30;;
24799;SDS011;12897;50.812;4.430;2023-04-24T07:24:41;35.77;;;18.63;;
24799;SDS011;12897;50.812;4.430;2023-04-24T07:27:15;36.35;;;17.42;;
24799;SDS011;12897;50.812;4.430;2023-04-24T07:29:43;38.05;;;16.80;;
24799;SDS011;12897;50.812;4.430;2023-04-24T07:32:10;36.55;;;17.02;;
24799;SDS011;12897;50.812;4.430;2023-04-24T07:34:38;40.03;;;17.65;;
24799;SDS011;12897;50.812;4.430;2023-04-24T07:37:06;36.23;;;17.45;;
24799;SDS011;12897;50.812;4.430;2023-04-24T07:39:35;35.70;;;16.90;;
24799;SDS011;12897;50.812;4.430;2023-04-24T07:42:03;32.73;;;16.25;;
24799;SDS011;12897;50.812;4.430;2023-04-24T07:44:31;31.27;;;15.80;;
24799;SDS011;12897;50.812;4.430;2023-04-24T07:46:58;33.78;;;15.25;;
24799;SDS011;12897;50.812;4.430;2023-04-24T07:49:26;35.58;;;16.32;;
24799;SDS011;12897;50.812;4.430;2023-04-24T07:51:54;35.05;;;17.65;;
24799;SDS011;12897;50.812;4.430;2023-04-24T07:54:21;35.45;;;16.85;;
24799;SDS011;12897;50.812;4.430;2023-04-24T07:56:49;40.43;;;18.17;;
24799;SDS011;12897;50.812;4.430;2023-04-24T07:59:18;31.70;;;17.45;;
24799;SDS011;12897;50.812;4.430;2023-04-24T08:01:46;41.25;;;17.50;;
24799;SDS011;12897;50.812;4.430;2023-04-24T08:04:19;30.40;;;14.55;;
24799;SDS011;12897;50.812;4.430;2023-04-24T08:06:48;34.80;;;15.58;;
24799;SDS011;12897;50.812;4.430;2023-04-24T08:09:18;28.05;;;14.35;;
24799;SDS011;12897;50.812;4.430;2023-04-24T08:11:46;37.48;;;17.30;;
24799;SDS011;12897;50.812;4.430;2023-04-24T08:14:14;25.55;;;13.95;;
24799;SDS011;12897;50.812;4.430;2023-04-24T08:16:41;33.58;;;14.60;;
24799;SDS011;12897;50.812;4.430;2023-04-24T08:19:09;33.38;;;13.85;;
24799;SDS011;12897;50.812;4.430;2023-04-24T08:21:45;26.75;;;11.18;;
24799;SDS011;12897;50.812;4.430;2023-04-24T08:24:14;23.80;;;10.88;;
24799;SDS011;12897;50.812;4.430;2023-04-24T08:26:43;28.62;;;11.05;;
24799;SDS011;12897;50.812;4.430;2023-04-24T08:29:11;24.75;;;10.53;;
24799;SDS011;12897;50.812;4.430;2023-04-24T08:31:39;21.50;;;9.58;;
24799;SDS011;12897;50.812;4.430;2023-04-24T08:34:08;27.87;;;11.20;;
24799;SDS011;12897;50.812;4.430;2023-04-24T08:36:39;23.87;;;10.30;;
24799;SDS011;12897;50.812;4.430;2023-04-24T08:39:12;21.82;;;10.23;;
24799;SDS011;12897;50.812;4.430;2023-04-24T08:41:41;26.68;;;9.80;;
24799;SDS011;12897;50.812;4.430;2023-04-24T08:44:11;25.30;;;10.10;;
24799;SDS011;12897;50.812;4.430;2023-04-24T08:46:43;33.38;;;9.20;;
24799;SDS011;12897;50.812;4.430;2023-04-24T08:49:13;21.85;;;8.95;;
24799;SDS011;12897;50.812;4.430;2023-04-24T08:51:44;29.42;;;9.53;;
24799;SDS011;12897;50.812;4.430;2023-04-24T08:56:43;31.42;;;9.45;;
24799;SDS011;12897;50.812;4.430;2023-04-24T09:01:42;23.87;;;7.47;;
24799;SDS011;12897;50.812;4.430;2023-04-24T09:04:12;20.68;;;6.95;;
24799;SDS011;12897;50.812;4.430;2023-04-24T09:06:41;19.90;;;7.15;;
24799;SDS011;12897;50.812;4.430;2023-04-24T09:09:11;21.20;;;6.92;;
24799;SDS011;12897;50.812;4.430;2023-04-24T09:11:38;19.42;;;6.95;;
24799;SDS011;12897;50.812;4.430;2023-04-24T09:14:06;19.23;;;6.33;;
24799;SDS011;12897;50.812;4.430;2023-04-24T09:16:37;18.32;;;6.50;;
24799;SDS011;12897;50.812;4.430;2023-04-24T09:19:05;16.23;;;6.62;;
24799;SDS011;12897;50.812;4.430;2023-04-24T09:21:33;17.35;;;6.35;;
24799;SDS011;12897;50.812;4.430;2023-04-24T09:24:03;14.70;;;6.33;;
24799;SDS011;12897;50.812;4.430;2023-04-24T09:26:34;13.32;;;5.40;;
24799;SDS011;12897;50.812;4.430;2023-04-24T09:29:03;20.32;;;6.60;;
24799;SDS011;12897;50.812;4.430;2023-04-24T09:31:32;19.23;;;5.58;;
24799;SDS011;12897;50.812;4.430;2023-04-24T09:36:35;18.85;;;6.50;;
24799;SDS011;12897;50.812;4.430;2023-04-24T09:39:05;15.30;;;5.47;;
24799;SDS011;12897;50.812;4.430;2023-04-24T09:41:43;18.77;;;5.95;;
24799;SDS011;12897;50.812;4.430;2023-04-24T09:44:15;18.10;;;5.70;;
24799;SDS011;12897;50.812;4.430;2023-04-24T09:46:55;16.90;;;5.37;;
24799;SDS011;12897;50.812;4.430;2023-04-24T09:49:22;16.40;;;5.33;;
24799;SDS011;12897;50.812;4.430;2023-04-24T09:51:51;19.30;;;6.33;;
24799;SDS011;12897;50.812;4.430;2023-04-24T09:54:19;13.40;;;5.33;;
24799;SDS011;12897;50.812;4.430;2023-04-24T09:56:49;13.53;;;4.42;;
24799;SDS011;12897;50.812;4.430;2023-04-24T09:59:23;16.35;;;5.08;;
24799;SDS011;12897;50.812;4.430;2023-04-24T10:04:24;20.00;;;7.62;;
24799;SDS011;12897;50.812;4.430;2023-04-24T10:06:53;18.55;;;5.35;;
24799;SDS011;12897;50.812;4.430;2023-04-24T10:09:28;14.63;;;4.95;;
24799;SDS011;12897;50.812;4.430;2023-04-24T10:11:56;13.00;;;5.25;;
24799;SDS011;12897;50.812;4.430;2023-04-24T10:14:24;16.30;;;4.80;;
24799;SDS011;12897;50.812;4.430;2023-04-24T10:16:54;13.85;;;4.65;;
24799;SDS011;12897;50.812;4.430;2023-04-24T10:19:25;11.57;;;4.95;;
24799;SDS011;12897;50.812;4.430;2023-04-24T10:21:53;11.53;;;4.60;;
24799;SDS011;12897;50.812;4.430;2023-04-24T10:24:21;11.12;;;4.67;;
24799;SDS011;12897;50.812;4.430;2023-04-24T10:29:25;17.55;;;5.72;;
24799;SDS011;12897;50.812;4.430;2023-04-24T10:32:02;14.05;;;5.37;;
24799;SDS011;12897;50.812;4.430;2023-04-24T10:34:31;19.92;;;5.50;;
24799;SDS011;12897;50.812;4.430;2023-04-24T10:37:00;15.23;;;5.97;;
24799;SDS011;12897;50.812;4.430;2023-04-24T10:39:30;15.60;;;6.45;;
24799;SDS011;12897;50.812;4.430;2023-04-24T10:42:00;11.88;;;6.35;;
24799;SDS011;12897;50.812;4.430;2023-04-24T10:44:36;17.17;;;6.08;;
24799;SDS011;12897;50.812;4.430;2023-04-24T10:47:06;17.42;;;5.65;;
24799;SDS011;12897;50.812;4.430;2023-04-24T10:49:41;13.95;;;5.70;;
24799;SDS011;12897;50.812;4.430;2023-04-24T10:52:09;14.68;;;6.17;;
24799;SDS011;12897;50.812;4.430;2023-04-24T10:54:44;17.32;;;6.67;;
24799;SDS011;12897;50.812;4.430;2023-04-24T11:00:24;13.70;;;5.35;;
24799;SDS011;12897;50.812;4.430;2023-04-24T11:02:40;14.13;;;5.80;;
24799;SDS011;12897;50.812;4.430;2023-04-24T11:10:46;19.92;;;6.15;;
24799;SDS011;12897;50.812;4.430;2023-04-24T11:13:21;13.55;;;6.60;;
24799;SDS011;12897;50.812;4.430;2023-04-24T11:15:46;16.97;;;7.10;;
24799;SDS011;12897;50.812;4.430;2023-04-24T11:18:38;13.90;;;6.85;;
24799;SDS011;12897;50.812;4.430;2023-04-24T11:21:18;15.90;;;6.50;;
24799;SDS011;12897;50.812;4.430;2023-04-24T11:23:47;14.70;;;5.83;;
24799;SDS011;12897;50.812;4.430;2023-04-24T11:26:18;16.87;;;6.90;;
24799;SDS011;12897;50.812;4.430;2023-04-24T11:28:55;13.05;;;5.97;;
24799;SDS011;12897;50.812;4.430;2023-04-24T11:31:44;15.15;;;5.85;;
24799;SDS011;12897;50.812;4.430;2023-04-24T11:34:13;10.85;;;5.72;;
24799;SDS011;12897;50.812;4.430;2023-04-24T11:36:43;16.93;;;5.85;;
24799;SDS011;12897;50.812;4.430;2023-04-24T11:39:14;13.68;;;5.67;;
24799;SDS011;12897;50.812;4.430;2023-04-24T11:41:42;15.95;;;6.90;;
24799;SDS011;12897;50.812;4.430;2023-04-24T11:44:10;19.77;;;7.42;;
24799;SDS011;12897;50.812;4.430;2023-04-24T11:46:43;17.05;;;7.30;;
24799;SDS011;12897;50.812;4.430;2023-04-24T11:49:13;14.10;;;6.78;;
24799;SDS011;12897;50.812;4.430;2023-04-24T11:51:40;12.23;;;5.97;;
24799;SDS011;12897;50.812;4.430;2023-04-24T11:54:08;15.35;;;6.75;;
24799;SDS011;12897;50.812;4.430;2023-04-24T11:56:36;17.15;;;6.72;;
24799;SDS011;12897;50.812;4.430;2023-04-24T11:59:04;18.15;;;7.30;;
24799;SDS011;12897;50.812;4.430;2023-04-24T12:01:49;15.88;;;7.75;;
24799;SDS011;12897;50.812;4.430;2023-04-24T12:04:14;17.07;;;7.33;;
24799;SDS011;12897;50.812;4.430;2023-04-24T12:07:04;12.85;;;7.42;;
24799;SDS011;12897;50.812;4.430;2023-04-24T12:09:29;17.75;;;7.62;;
24799;SDS011;12897;50.812;4.430;2023-04-24T12:12:08;16.23;;;8.07;;
24799;SDS011;12897;50.812;4.430;2023-04-24T12:17:28;16.77;;;8.48;;
24799;SDS011;12897;50.812;4.430;2023-04-24T12:20:02;12.50;;;7.20;;
24799;SDS011;12897;50.812;4.430;2023-04-24T12:22:47;18.73;;;7.65;;
24799;SDS011;12897;50.812;4.430;2023-04-24T12:25:16;15.05;;;7.33;;
24799;SDS011;12897;50.812;4.430;2023-04-24T12:27:46;14.85;;;8.30;;
24799;SDS011;12897;50.812;4.430;2023-04-24T12:30:17;13.80;;;6.62;;
24799;SDS011;12897;50.812;4.430;2023-04-24T12:32:46;13.53;;;8.45;;
24799;SDS011;12897;50.812;4.430;2023-04-24T12:37:49;16.87;;;8.23;;
24799;SDS011;12897;50.812;4.430;2023-04-24T12:40:20;15.35;;;8.43;;
24799;SDS011;12897;50.812;4.430;2023-04-24T12:42:50;11.53;;;7.40;;
24799;SDS011;12897;50.812;4.430;2023-04-24T12:45:18;15.48;;;7.53;;
24799;SDS011;12897;50.812;4.430;2023-04-24T12:47:48;15.58;;;7.47;;
24799;SDS011;12897;50.812;4.430;2023-04-24T12:50:15;13.80;;;7.47;;
24799;SDS011;12897;50.812;4.430;2023-04-24T12:52:49;16.50;;;7.35;;
24799;SDS011;12897;50.812;4.430;2023-04-24T12:55:17;10.32;;;6.20;;
24799;SDS011;12897;50.812;4.430;2023-04-24T12:57:45;12.63;;;6.58;;
24799;SDS011;12897;50.812;4.430;2023-04-24T13:00:13;17.48;;;6.42;;
24799;SDS011;12897;50.812;4.430;2023-04-24T13:02:42;10.70;;;6.10;;
24799;SDS011;12897;50.812;4.430;2023-04-24T13:05:11;13.48;;;6.30;;
24799;SDS011;12897;50.812;4.430;2023-04-24T13:07:40;10.72;;;5.60;;
24799;SDS011;12897;50.812;4.430;2023-04-24T13:10:08;10.70;;;5.05;;
24799;SDS011;12897;50.812;4.430;2023-04-24T13:12:40;11.38;;;5.60;;
24799;SDS011;12897;50.812;4.430;2023-04-24T13:15:06;15.53;;;5.60;;
24799;SDS011;12897;50.812;4.430;2023-04-24T13:17:35;13.35;;;5.85;;
24799;SDS011;12897;50.812;4.430;2023-04-24T13:20:03;9.78;;;5.42;;
24799;SDS011;12897;50.812;4.430;2023-04-24T13:22:33;10.85;;;5.72;;
24799;SDS011;12897;50.812;4.430;2023-04-24T13:25:02;14.13;;;5.73;;
24799;SDS011;12897;50.812;4.430;2023-04-24T13:27:31;10.17;;;4.80;;
24799;SDS011;12897;50.812;4.430;2023-04-24T13:30:07;11.10;;;4.80;;
24799;SDS011;12897;50.812;4.430;2023-04-24T13:32:35;10.05;;;4.67;;
24799;SDS011;12897;50.812;4.430;2023-04-24T13:35:03;13.43;;;5.58;;
24799;SDS011;12897;50.812;4.430;2023-04-24T13:37:30;9.30;;;4.25;;
24799;SDS011;12897;50.812;4.430;2023-04-24T13:39:58;9.75;;;4.47;;
24799;SDS011;12897;50.812;4.430;2023-04-24T13:42:26;10.88;;;4.55;;
24799;SDS011;12897;50.812;4.430;2023-04-24T13:44:54;10.93;;;4.22;;
24799;SDS011;12897;50.812;4.430;2023-04-24T13:47:23;7.20;;;3.85;;
24799;SDS011;12897;50.812;4.430;2023-04-24T13:49:50;9.70;;;4.22;;
24799;SDS011;12897;50.812;4.430;2023-04-24T13:52:19;15.40;;;4.53;;
24799;SDS011;12897;50.812;4.430;2023-04-24T13:54:47;9.95;;;4.60;;
24799;SDS011;12897;50.812;4.430;2023-04-24T13:57:14;14.40;;;5.83;;
24799;SDS011;12897;50.812;4.430;2023-04-24T13:59:42;7.85;;;3.58;;
24799;SDS011;12897;50.812;4.430;2023-04-24T14:02:10;11.00;;;3.85;;
24799;SDS011;12897;50.812;4.430;2023-04-24T14:04:38;14.65;;;3.80;;
24799;SDS011;12897;50.812;4.430;2023-04-24T14:07:07;9.55;;;4.10;;
24799;SDS011;12897;50.812;4.430;2023-04-24T14:09:40;12.23;;;3.83;;
24799;SDS011;12897;50.812;4.430;2023-04-24T14:12:08;12.40;;;4.17;;
24799;SDS011;12897;50.812;4.430;2023-04-24T14:14:36;8.70;;;3.52;;
24799;SDS011;12897;50.812;4.430;2023-04-24T14:17:03;6.72;;;3.42;;
24799;SDS011;12897;50.812;4.430;2023-04-24T14:19:32;9.70;;;3.40;;
24799;SDS011;12897;50.812;4.430;2023-04-24T14:22:00;9.30;;;3.70;;
24799;SDS011;12897;50.812;4.430;2023-04-24T14:24:28;8.20;;;3.05;;
24799;SDS011;12897;50.812;4.430;2023-04-24T14:26:57;8.13;;;3.35;;
24799;SDS011;12897;50.812;4.430;2023-04-24T14:29:27;8.40;;;3.02;;
24799;SDS011;12897;50.812;4.430;2023-04-24T14:31:57;7.70;;;2.70;;
24799;SDS011;12897;50.812;4.430;2023-04-24T14:34:29;7.60;;;2.72;;
24799;SDS011;12897;50.812;4.430;2023-04-24T14:36:58;9.15;;;2.70;;
24799;SDS011;12897;50.812;4.430;2023-04-24T14:39:27;8.20;;;3.07;;
24799;SDS011;12897;50.812;4.430;2023-04-24T14:41:55;8.73;;;2.85;;
24799;SDS011;12897;50.812;4.430;2023-04-24T14:44:23;8.40;;;2.90;;
24799;SDS011;12897;50.812;4.430;2023-04-24T14:46:51;6.40;;;2.47;;
24799;SDS011;12897;50.812;4.430;2023-04-24T14:49:21;9.10;;;3.27;;
24799;SDS011;12897;50.812;4.430;2023-04-24T14:51:50;6.22;;;2.87;;
24799;SDS011;12897;50.812;4.430;2023-04-24T14:54:18;7.58;;;2.55;;
24799;SDS011;12897;50.812;4.430;2023-04-24T14:56:47;5.47;;;2.33;;
24799;SDS011;12897;50.812;4.430;2023-04-24T14:59:18;6.33;;;2.17;;
24799;SDS011;12897;50.812;4.430;2023-04-24T15:01:46;6.50;;;2.20;;
24799;SDS011;12897;50.812;4.430;2023-04-24T15:04:14;7.17;;;2.47;;
24799;SDS011;12897;50.812;4.430;2023-04-24T15:06:41;5.42;;;2.45;;
24799;SDS011;12897;50.812;4.430;2023-04-24T15:09:10;6.47;;;2.52;;
24799;SDS011;12897;50.812;4.430;2023-04-24T15:11:38;4.78;;;2.50;;
24799;SDS011;12897;50.812;4.430;2023-04-24T15:14:07;9.05;;;2.77;;